sensor_id;sensor_type;location;lat;lon;timestamp;pressure;altitude;pressure_sealevel;temperature;humidity
54948;BME280;41113;41.882;12.530;2023-06-22T00:02:13;101412.22;;;24.90;54.98
54948;BME280;41113;41.882;12.530;2023-06-22T00:04:39;101414.38;;;24.81;55.54
54948;BME280;41113;41.882;12.530;2023-06-22T00:07:04;101416.91;;;24.83;55.41
54948;BME280;41113;41.882;12.530;2023-06-22T00:09:31;101412.03;;;24.85;55.47
54948;BME280;41113;41.882;12.530;2023-06-22T00:11:56;101412.22;;;24.90;55.21
54948;BME280;41113;41.882;12.530;2023-06-22T00:14:21;101408.44;;;24.78;56.75
54948;BME280;41113;41.882;12.530;2023-06-22T00:16:47;101411.41;;;24.76;56.01
54948;BME280;41113;41.882;12.530;2023-06-22T00:19:16;101412.69;;;24.74;57.20
54948;BME280;41113;41.882;12.530;2023-06-22T00:21:43;101413.09;;;24.58;58.34
54948;BME280;41113;41.882;12.530;2023-06-22T00:24:12;101402.31;;;24.49;57.37
54948;BME280;41113;41.882;12.530;2023-06-22T00:26:37;101411.81;;;24.54;57.51
54948;BME280;41113;41.882;12.530;2023-06-22T00:29:02;101395.97;;;24.56;57.76
54948;BME280;41113;41.882;12.530;2023-06-22T00:31:28;101409.28;;;24.59;56.96
54948;BME280;41113;41.882;12.530;2023-06-22T00:33:53;101403.78;;;24.59;57.63
54948;BME280;41113;41.882;12.530;2023-06-22T00:36:18;101403.78;;;24.59;58.10
54948;BME280;41113;41.882;12.530;2023-06-22T00:38:44;101391.94;;;24.65;56.89
54948;BME280;41113;41.882;12.530;2023-06-22T00:41:09;101392.38;;;24.68;57.01
54948;BME280;41113;41.882;12.530;2023-06-22T00:43:35;101392.81;;;24.72;56.85
54948;BME280;41113;41.882;12.530;2023-06-22T00:46:00;101386.25;;;24.79;57.00
54948;BME280;41113;41.882;12.530;2023-06-22T00:48:26;101386.03;;;24.81;56.55
54948;BME280;41113;41.882;12.530;2023-06-22T00:50:51;101387.31;;;24.85;56.21
54948;BME280;41113;41.882;12.530;2023-06-22T00:53:19;101389.00;;;24.86;56.25
54948;BME280;41113;41.882;12.530;2023-06-22T00:55:45;101385.81;;;24.89;55.91
54948;BME280;41113;41.882;12.530;2023-06-22T00:58:13;101381.78;;;24.92;56.08
54948;BME280;41113;41.882;12.530;2023-06-22T01:00:39;101376.09;;;24.93;55.88
54948;BME280;41113;41.882;12.530;2023-06-22T01:03:05;101371.84;;;24.97;55.68
54948;BME280;41113;41.882;12.530;2023-06-22T01:05:34;101371.22;;;24.89;56.02
54948;BME280;41113;41.882;12.530;2023-06-22T01:13:28;101366.63;;;24.49;59.39
54948;BME280;41113;41.882;12.530;2023-06-22T01:16:08;101362.59;;;24.52;59.61
54948;BME280;41113;41.882;12.530;2023-06-22T01:18:36;101368.69;;;24.34;59.35
54948;BME280;41113;41.882;12.530;2023-06-22T01:21:05;101368.25;;;24.17;60.94
54948;BME280;41113;41.882;12.530;2023-06-22T01:28:58;101363.97;;;24.02;61.55
54948;BME280;41113;41.882;12.530;2023-06-22T01:31:26;101366.50;;;23.97;62.42
54948;BME280;41113;41.882;12.530;2023-06-22T01:33:58;101361.03;;;24.03;63.06
54948;BME280;41113;41.882;12.530;2023-06-22T01:36:25;101365.25;;;23.93;62.56
54948;BME280;41113;41.882;12.530;2023-06-22T01:38:51;101362.06;;;23.89;62.79
54948;BME280;41113;41.882;12.530;2023-06-22T01:41:17;101361.00;;;23.90;62.71
54948;BME280;41113;41.882;12.530;2023-06-22T01:43:45;101355.09;;;23.86;63.07
54948;BME280;41113;41.882;12.530;2023-06-22T01:46:11;101363.53;;;23.78;63.15
54948;BME280;41113;41.882;12.530;2023-06-22T01:48:38;101357.78;;;23.73;64.00
54948;BME280;41113;41.882;12.530;2023-06-22T01:51:04;101347.06;;;23.78;62.51
54948;BME280;41113;41.882;12.530;2023-06-22T01:53:29;101352.16;;;23.88;62.39
54948;BME280;41113;41.882;12.530;2023-06-22T01:55:56;101357.22;;;23.84;62.77
54948;BME280;41113;41.882;12.530;2023-06-22T01:58:25;101354.03;;;23.87;62.34
54948;BME280;41113;41.882;12.530;2023-06-22T02:00:58;101350.38;;;23.67;64.35
54948;BME280;41113;41.882;12.530;2023-06-22T02:03:34;101350.81;;;23.64;64.33
54948;BME280;41113;41.882;12.530;2023-06-22T02:06:05;101347.19;;;23.57;65.13
54948;BME280;41113;41.882;12.530;2023-06-22T02:08:55;101354.13;;;23.53;65.26
54948;BME280;41113;41.882;12.530;2023-06-22T02:11:22;101342.72;;;23.49;63.95
54948;BME280;41113;41.882;12.530;2023-06-22T02:13:49;101339.81;;;23.57;63.53
54948;BME280;41113;41.882;12.530;2023-06-22T02:16:15;101336.88;;;23.59;63.94
54948;BME280;41113;41.882;12.530;2023-06-22T02:18:49;101337.72;;;23.59;64.86
54948;BME280;41113;41.882;12.530;2023-06-22T02:21:18;101342.78;;;23.56;65.00
54948;BME280;41113;41.882;12.530;2023-06-22T02:23:44;101334.22;;;23.38;65.43
54948;BME280;41113;41.882;12.530;2023-06-22T02:26:09;101338.41;;;23.27;65.57
54948;BME280;41113;41.882;12.530;2023-06-22T02:28:35;101338.38;;;23.20;65.94
54948;BME280;41113;41.882;12.530;2023-06-22T02:31:00;101338.75;;;23.11;66.25
54948;BME280;41113;41.882;12.530;2023-06-22T02:33:25;101333.22;;;23.04;66.54
54948;BME280;41113;41.882;12.530;2023-06-22T02:35:51;101329.41;;;23.05;66.32
54948;BME280;41113;41.882;12.530;2023-06-22T02:38:16;101327.31;;;23.07;65.83
54948;BME280;41113;41.882;12.530;2023-06-22T02:40:42;101322.34;;;23.17;64.98
54948;BME280;41113;41.882;12.530;2023-06-22T02:43:08;101328.28;;;23.27;65.29
54948;BME280;41113;41.882;12.530;2023-06-22T02:45:33;101321.09;;;23.20;65.07
54948;BME280;41113;41.882;12.530;2023-06-22T02:47:58;101325.31;;;23.22;64.89
54948;BME280;41113;41.882;12.530;2023-06-22T02:50:24;101325.50;;;23.14;65.35
54948;BME280;41113;41.882;12.530;2023-06-22T02:52:49;101332.81;;;23.07;65.69
54948;BME280;41113;41.882;12.530;2023-06-22T02:55:15;101335.16;;;23.10;65.61
54948;BME280;41113;41.882;12.530;2023-06-22T02:57:40;101329.00;;;23.08;64.91
54948;BME280;41113;41.882;12.530;2023-06-22T03:00:09;101328.56;;;23.05;65.62
54948;BME280;41113;41.882;12.530;2023-06-22T03:02:41;101324.84;;;23.12;64.52
54948;BME280;41113;41.882;12.530;2023-06-22T03:05:07;101337.78;;;23.32;63.79
54948;BME280;41113;41.882;12.530;2023-06-22T03:07:40;101337.53;;;23.26;63.86
54948;BME280;41113;41.882;12.530;2023-06-22T03:10:06;101333.34;;;23.31;63.55
54948;BME280;41113;41.882;12.530;2023-06-22T03:12:31;101332.53;;;23.37;63.40
54948;BME280;41113;41.882;12.530;2023-06-22T03:14:57;101342.81;;;23.28;64.74
54948;BME280;41113;41.882;12.530;2023-06-22T03:17:23;101340.50;;;23.25;64.24
54948;BME280;41113;41.882;12.530;2023-06-22T03:19:48;101341.84;;;23.42;63.43
54948;BME280;41113;41.882;12.530;2023-06-22T03:22:13;101341.47;;;23.52;62.97
54948;BME280;41113;41.882;12.530;2023-06-22T03:24:40;101346.94;;;23.52;62.95
54948;BME280;41113;41.882;12.530;2023-06-22T03:27:05;101345.66;;;23.48;63.95
54948;BME280;41113;41.882;12.530;2023-06-22T03:29:31;101339.25;;;23.34;64.10
54948;BME280;41113;41.882;12.530;2023-06-22T03:31:56;101338.78;;;23.17;64.68
54948;BME280;41113;41.882;12.530;2023-06-22T03:34:22;101343.75;;;23.07;65.08
54948;BME280;41113;41.882;12.530;2023-06-22T03:36:47;101340.78;;;23.02;65.21
54948;BME280;41113;41.882;12.530;2023-06-22T03:39:12;101342.44;;;22.96;65.32
54948;BME280;41113;41.882;12.530;2023-06-22T03:41:38;101342.56;;;23.16;64.25
54948;BME280;41113;41.882;12.530;2023-06-22T03:44:04;101338.91;;;23.44;63.19
54948;BME280;41113;41.882;12.530;2023-06-22T03:46:29;101335.91;;;23.39;63.40
54948;BME280;41113;41.882;12.530;2023-06-22T03:48:55;101340.44;;;23.12;65.32
54948;BME280;41113;41.882;12.530;2023-06-22T03:51:20;101332.88;;;23.20;64.45
54948;BME280;41113;41.882;12.530;2023-06-22T03:53:45;101332.38;;;23.45;63.48
54948;BME280;41113;41.882;12.530;2023-06-22T03:56:11;101335.75;;;23.47;63.31
54948;BME280;41113;41.882;12.530;2023-06-22T03:58:36;101338.31;;;23.55;63.05
54948;BME280;41113;41.882;12.530;2023-06-22T04:01:07;101334.06;;;23.52;63.18
54948;BME280;41113;41.882;12.530;2023-06-22T04:03:36;101341.19;;;23.40;63.69
54948;BME280;41113;41.882;12.530;2023-06-22T04:06:02;101345.72;;;23.61;62.97
54948;BME280;41113;41.882;12.530;2023-06-22T04:08:27;101339.19;;;23.62;62.83
54948;BME280;41113;41.882;12.530;2023-06-22T04:10:52;101341.59;;;23.78;62.31
54948;BME280;41113;41.882;12.530;2023-06-22T04:13:18;101340.75;;;23.78;62.57
54948;BME280;41113;41.882;12.530;2023-06-22T04:15:44;101341.59;;;23.92;61.97
54948;BME280;41113;41.882;12.530;2023-06-22T04:18:09;101345.81;;;24.01;61.58
54948;BME280;41113;41.882;12.530;2023-06-22T04:20:34;101338.47;;;24.14;61.07
54948;BME280;41113;41.882;12.530;2023-06-22T04:23:00;101342.03;;;24.02;61.37
54948;BME280;41113;41.882;12.530;2023-06-22T04:25:25;101343.53;;;24.11;61.13
54948;BME280;41113;41.882;12.530;2023-06-22T04:27:50;101335.72;;;24.21;60.71
54948;BME280;41113;41.882;12.530;2023-06-22T04:30:16;101339.13;;;24.36;60.32
54948;BME280;41113;41.882;12.530;2023-06-22T04:32:42;101330.88;;;24.23;60.55
54948;BME280;41113;41.882;12.530;2023-06-22T04:35:09;101338.50;;;24.61;59.55
54948;BME280;41113;41.882;12.530;2023-06-22T04:37:34;101342.97;;;24.48;59.84
54948;BME280;41113;41.882;12.530;2023-06-22T04:40:00;101331.53;;;24.51;59.86
54948;BME280;41113;41.882;12.530;2023-06-22T04:42:28;101328.56;;;24.66;59.45
54948;BME280;41113;41.882;12.530;2023-06-22T04:44:54;101319.69;;;24.71;59.50
54948;BME280;41113;41.882;12.530;2023-06-22T04:47:20;101323.25;;;24.85;58.89
54948;BME280;41113;41.882;12.530;2023-06-22T04:49:45;101326.84;;;24.85;58.99
54948;BME280;41113;41.882;12.530;2023-06-22T04:52:12;101323.91;;;24.80;59.11
54948;BME280;41113;41.882;12.530;2023-06-22T04:54:40;101330.47;;;24.59;59.88
54948;BME280;41113;41.882;12.530;2023-06-22T04:57:13;101334.06;;;24.73;59.70
54948;BME280;41113;41.882;12.530;2023-06-22T04:59:40;101333.00;;;24.80;59.29
54948;BME280;41113;41.882;12.530;2023-06-22T05:02:07;101332.38;;;24.78;59.38
54948;BME280;41113;41.882;12.530;2023-06-22T05:04:32;101332.75;;;25.02;58.92
54948;BME280;41113;41.882;12.530;2023-06-22T05:07:01;101334.44;;;25.03;58.71
54948;BME280;41113;41.882;12.530;2023-06-22T05:09:27;101335.28;;;24.90;58.97
54948;BME280;41113;41.882;12.530;2023-06-22T05:11:53;101346.72;;;24.87;58.95
54948;BME280;41113;41.882;12.530;2023-06-22T05:14:18;101349.19;;;25.22;57.76
54948;BME280;41113;41.882;12.530;2023-06-22T05:16:44;101348.25;;;25.92;55.95
54948;BME280;41113;41.882;12.530;2023-06-22T05:19:10;101358.25;;;26.50;53.90
54948;BME280;41113;41.882;12.530;2023-06-22T05:21:36;101357.72;;;27.09;52.88
54948;BME280;41113;41.882;12.530;2023-06-22T05:24:02;101362.94;;;27.84;51.04
54948;BME280;41113;41.882;12.530;2023-06-22T05:26:31;101361.22;;;28.55;49.48
54948;BME280;41113;41.882;12.530;2023-06-22T05:28:58;101360.53;;;28.82;47.59
54948;BME280;41113;41.882;12.530;2023-06-22T05:31:24;101370.41;;;29.02;48.54
54948;BME280;41113;41.882;12.530;2023-06-22T05:33:51;101366.59;;;29.66;46.94
54948;BME280;41113;41.882;12.530;2023-06-22T05:36:17;101368.53;;;29.42;45.98
54948;BME280;41113;41.882;12.530;2023-06-22T05:38:44;101363.38;;;27.99;49.24
54948;BME280;41113;41.882;12.530;2023-06-22T05:41:10;101373.84;;;27.79;49.57
54948;BME280;41113;41.882;12.530;2023-06-22T05:43:35;101365.06;;;28.00;49.70
54948;BME280;41113;41.882;12.530;2023-06-22T05:46:01;101369.03;;;28.34;48.54
54948;BME280;41113;41.882;12.530;2023-06-22T05:48:27;101373.53;;;28.94;47.96
54948;BME280;41113;41.882;12.530;2023-06-22T05:50:53;101372.03;;;29.61;45.41
54948;BME280;41113;41.882;12.530;2023-06-22T05:53:18;101373.81;;;29.56;46.67
54948;BME280;41113;41.882;12.530;2023-06-22T05:55:44;101383.41;;;29.01;46.18
54948;BME280;41113;41.882;12.530;2023-06-22T05:58:09;101386.38;;;28.76;47.55
54948;BME280;41113;41.882;12.530;2023-06-22T06:00:35;101383.59;;;29.23;47.09
54948;BME280;41113;41.882;12.530;2023-06-22T06:03:01;101376.03;;;30.11;45.02
54948;BME280;41113;41.882;12.530;2023-06-22T06:05:35;101373.25;;;30.73;42.35
54948;BME280;41113;41.882;12.530;2023-06-22T06:08:01;101376.13;;;30.16;44.48
54948;BME280;41113;41.882;12.530;2023-06-22T06:10:27;101370.28;;;30.00;45.13
54948;BME280;41113;41.882;12.530;2023-06-22T06:12:55;101378.88;;;30.78;43.71
54948;BME280;41113;41.882;12.530;2023-06-22T06:15:20;101376.22;;;29.64;43.92
54948;BME280;41113;41.882;12.530;2023-06-22T06:17:50;101372.44;;;29.18;45.05
54948;BME280;41113;41.882;12.530;2023-06-22T06:20:19;101369.81;;;29.00;44.81
54948;BME280;41113;41.882;12.530;2023-06-22T06:22:44;101375.81;;;29.08;45.69
54948;BME280;41113;41.882;12.530;2023-06-22T06:25:09;101384.59;;;29.05;45.65
54948;BME280;41113;41.882;12.530;2023-06-22T06:27:35;101377.94;;;29.53;44.53
54948;BME280;41113;41.882;12.530;2023-06-22T06:30:00;101380.00;;;29.23;45.51
54948;BME280;41113;41.882;12.530;2023-06-22T06:32:25;101383.59;;;28.53;47.21
54948;BME280;41113;41.882;12.530;2023-06-22T06:34:51;101392.78;;;28.89;46.69
54948;BME280;41113;41.882;12.530;2023-06-22T06:37:17;101389.38;;;29.22;45.92
54948;BME280;41113;41.882;12.530;2023-06-22T06:39:44;101394.38;;;29.71;44.56
54948;BME280;41113;41.882;12.530;2023-06-22T06:42:09;101392.72;;;29.87;43.23
54948;BME280;41113;41.882;12.530;2023-06-22T06:44:36;101387.50;;;29.74;44.13
54948;BME280;41113;41.882;12.530;2023-06-22T06:47:02;101390.38;;;29.79;43.15
54948;BME280;41113;41.882;12.530;2023-06-22T06:49:28;101403.31;;;29.90;43.61
54948;BME280;41113;41.882;12.530;2023-06-22T06:51:54;101393.44;;;29.94;43.16
54948;BME280;41113;41.882;12.530;2023-06-22T06:54:21;101393.25;;;29.32;44.27
54948;BME280;41113;41.882;12.530;2023-06-22T06:56:46;101394.69;;;29.35;44.59
54948;BME280;41113;41.882;12.530;2023-06-22T06:59:14;101394.63;;;29.58;44.26
54948;BME280;41113;41.882;12.530;2023-06-22T07:01:40;101399.69;;;30.30;42.84
54948;BME280;41113;41.882;12.530;2023-06-22T07:04:06;101399.59;;;30.25;43.19
54948;BME280;41113;41.882;12.530;2023-06-22T07:06:31;101388.50;;;29.68;44.44
54948;BME280;41113;41.882;12.530;2023-06-22T07:08:58;101389.59;;;29.95;44.39
54948;BME280;41113;41.882;12.530;2023-06-22T07:11:23;101395.63;;;29.92;44.15
54948;BME280;41113;41.882;12.530;2023-06-22T07:13:49;101382.84;;;30.20;43.78
54948;BME280;41113;41.882;12.530;2023-06-22T07:16:14;101381.63;;;30.44;43.36
54948;BME280;41113;41.882;12.530;2023-06-22T07:18:40;101384.69;;;30.76;42.31
54948;BME280;41113;41.882;12.530;2023-06-22T07:21:05;101382.00;;;30.64;42.79
54948;BME280;41113;41.882;12.530;2023-06-22T07:23:32;101385.91;;;31.02;42.13
54948;BME280;41113;41.882;12.530;2023-06-22T07:25:57;101390.69;;;31.07;41.98
54948;BME280;41113;41.882;12.530;2023-06-22T07:28:22;101383.84;;;30.76;42.61
54948;BME280;41113;41.882;12.530;2023-06-22T07:30:48;101380.44;;;30.40;43.15
54948;BME280;41113;41.882;12.530;2023-06-22T07:33:13;101385.38;;;30.67;42.72
54948;BME280;41113;41.882;12.530;2023-06-22T07:35:39;101382.84;;;30.65;42.99
54948;BME280;41113;41.882;12.530;2023-06-22T07:38:04;101377.59;;;30.35;43.31
54948;BME280;41113;41.882;12.530;2023-06-22T07:40:30;101382.91;;;30.70;42.60
54948;BME280;41113;41.882;12.530;2023-06-22T07:42:55;101379.25;;;31.03;42.58
54948;BME280;41113;41.882;12.530;2023-06-22T07:45:21;101373.53;;;31.26;42.16
54948;BME280;41113;41.882;12.530;2023-06-22T07:47:46;101378.53;;;30.91;41.88
54948;BME280;41113;41.882;12.530;2023-06-22T07:50:12;101376.09;;;30.78;42.60
54948;BME280;41113;41.882;12.530;2023-06-22T07:52:37;101374.78;;;30.63;42.80
54948;BME280;41113;41.882;12.530;2023-06-22T07:55:03;101373.56;;;30.59;42.98
54948;BME280;41113;41.882;12.530;2023-06-22T07:57:29;101364.09;;;31.27;41.75
54948;BME280;41113;41.882;12.530;2023-06-22T08:00:00;101373.75;;;30.70;42.92
54948;BME280;41113;41.882;12.530;2023-06-22T08:02:26;101376.34;;;30.76;42.50
54948;BME280;41113;41.882;12.530;2023-06-22T08:04:51;101374.06;;;30.56;43.15
54948;BME280;41113;41.882;12.530;2023-06-22T08:07:17;101374.16;;;30.95;42.38
54948;BME280;41113;41.882;12.530;2023-06-22T08:09:47;101373.91;;;31.35;41.40
54948;BME280;41113;41.882;12.530;2023-06-22T08:12:13;101368.69;;;31.61;40.73
54948;BME280;41113;41.882;12.530;2023-06-22T08:14:39;101379.16;;;31.75;40.68
54948;BME280;41113;41.882;12.530;2023-06-22T08:17:05;101375.91;;;31.83;40.28
54948;BME280;41113;41.882;12.530;2023-06-22T08:19:30;101371.56;;;31.49;41.20
54948;BME280;41113;41.882;12.530;2023-06-22T08:21:56;101369.25;;;31.02;41.68
54948;BME280;41113;41.882;12.530;2023-06-22T08:24:22;101370.47;;;31.50;40.48
54948;BME280;41113;41.882;12.530;2023-06-22T08:26:47;101367.84;;;31.60;38.87
54948;BME280;41113;41.882;12.530;2023-06-22T08:29:12;101363.59;;;31.74;40.27
54948;BME280;41113;41.882;12.530;2023-06-22T08:31:38;101373.66;;;31.58;40.40
54948;BME280;41113;41.882;12.530;2023-06-22T08:34:03;101373.84;;;31.30;40.71
54948;BME280;41113;41.882;12.530;2023-06-22T08:36:29;101369.19;;;31.36;40.34
54948;BME280;41113;41.882;12.530;2023-06-22T08:38:57;101368.31;;;31.13;39.58
54948;BME280;41113;41.882;12.530;2023-06-22T08:41:28;101365.84;;;30.95;40.79
54948;BME280;41113;41.882;12.530;2023-06-22T08:43:53;101346.41;;;31.34;40.56
54948;BME280;41113;41.882;12.530;2023-06-22T08:46:19;101357.94;;;31.69;39.79
54948;BME280;41113;41.882;12.530;2023-06-22T08:48:48;101354.78;;;31.82;39.35
54948;BME280;41113;41.882;12.530;2023-06-22T08:51:14;101360.75;;;31.25;39.04
54948;BME280;41113;41.882;12.530;2023-06-22T08:53:39;101353.19;;;31.04;40.26
54948;BME280;41113;41.882;12.530;2023-06-22T08:56:05;101356.38;;;31.13;40.29
54948;BME280;41113;41.882;12.530;2023-06-22T08:58:30;101356.88;;;31.26;40.73
54948;BME280;41113;41.882;12.530;2023-06-22T09:00:55;101354.75;;;31.55;40.26
54948;BME280;41113;41.882;12.530;2023-06-22T09:03:20;101351.81;;;31.67;40.44
54948;BME280;41113;41.882;12.530;2023-06-22T09:05:46;101348.41;;;31.60;40.22
54948;BME280;41113;41.882;12.530;2023-06-22T09:08:11;101355.34;;;31.84;40.04
54948;BME280;41113;41.882;12.530;2023-06-22T09:10:37;101349.63;;;31.91;39.69
54948;BME280;41113;41.882;12.530;2023-06-22T09:13:02;101350.19;;;31.93;39.74
54948;BME280;41113;41.882;12.530;2023-06-22T09:15:27;101347.75;;;31.75;38.69
54948;BME280;41113;41.882;12.530;2023-06-22T09:17:53;101342.06;;;31.65;39.33
54948;BME280;41113;41.882;12.530;2023-06-22T09:20:19;101346.41;;;31.77;39.27
54948;BME280;41113;41.882;12.530;2023-06-22T09:22:45;101343.81;;;31.49;38.90
54948;BME280;41113;41.882;12.530;2023-06-22T09:25:10;101345.13;;;31.63;38.68
54948;BME280;41113;41.882;12.530;2023-06-22T09:27:36;101347.56;;;31.81;38.18
54948;BME280;41113;41.882;12.530;2023-06-22T09:30:01;101337.59;;;31.85;38.58
54948;BME280;41113;41.882;12.530;2023-06-22T09:32:28;101337.75;;;31.74;39.10
54948;BME280;41113;41.882;12.530;2023-06-22T09:34:53;101337.59;;;31.85;38.81
54948;BME280;41113;41.882;12.530;2023-06-22T09:37:18;101331.53;;;31.88;38.80
54948;BME280;41113;41.882;12.530;2023-06-22T09:39:44;101336.09;;;32.00;39.06
54948;BME280;41113;41.882;12.530;2023-06-22T09:42:09;101334.97;;;32.01;38.77
54948;BME280;41113;41.882;12.530;2023-06-22T09:44:34;101339.72;;;32.27;38.80
54948;BME280;41113;41.882;12.530;2023-06-22T09:47:00;101328.72;;;32.47;38.07
54948;BME280;41113;41.882;12.530;2023-06-22T09:49:25;101340.41;;;32.44;37.53
54948;BME280;41113;41.882;12.530;2023-06-22T09:51:51;101333.81;;;32.56;37.67
54948;BME280;41113;41.882;12.530;2023-06-22T09:54:17;101333.34;;;32.69;37.08
54948;BME280;41113;41.882;12.530;2023-06-22T09:56:43;101340.22;;;32.93;36.46
54948;BME280;41113;41.882;12.530;2023-06-22T09:59:08;101342.50;;;33.06;35.62
54948;BME280;41113;41.882;12.530;2023-06-22T10:01:33;101339.19;;;33.09;35.20
54948;BME280;41113;41.882;12.530;2023-06-22T10:03:59;101333.69;;;33.20;33.59
54948;BME280;41113;41.882;12.530;2023-06-22T10:06:24;101335.28;;;33.10;34.16
54948;BME280;41113;41.882;12.530;2023-06-22T10:08:51;101330.34;;;33.23;34.16
54948;BME280;41113;41.882;12.530;2023-06-22T10:11:16;101338.47;;;33.29;33.30
54948;BME280;41113;41.882;12.530;2023-06-22T10:13:42;101332.94;;;33.34;32.95
54948;BME280;41113;41.882;12.530;2023-06-22T10:16:08;101336.50;;;33.30;32.01
54948;BME280;41113;41.882;12.530;2023-06-22T10:18:33;101332.66;;;33.36;32.32
54948;BME280;41113;41.882;12.530;2023-06-22T10:21:00;101330.19;;;33.50;31.19
54948;BME280;41113;41.882;12.530;2023-06-22T10:23:25;101341.13;;;33.61;31.53
54948;BME280;41113;41.882;12.530;2023-06-22T10:25:50;101332.47;;;33.63;31.58
54948;BME280;41113;41.882;12.530;2023-06-22T10:28:16;101331.66;;;33.62;31.34
54948;BME280;41113;41.882;12.530;2023-06-22T10:30:42;101331.09;;;33.70;31.46
54948;BME280;41113;41.882;12.530;2023-06-22T10:33:11;101325.06;;;33.84;31.20
54948;BME280;41113;41.882;12.530;2023-06-22T10:35:37;101320.59;;;33.88;31.06
54948;BME280;41113;41.882;12.530;2023-06-22T10:38:03;101314.75;;;33.89;30.72
54948;BME280;41113;41.882;12.530;2023-06-22T10:40:29;101317.81;;;33.98;30.58
54948;BME280;41113;41.882;12.530;2023-06-22T10:42:55;101315.03;;;33.98;30.64
54948;BME280;41113;41.882;12.530;2023-06-22T10:45:20;101320.88;;;34.01;30.94
54948;BME280;41113;41.882;12.530;2023-06-22T10:47:45;101320.59;;;34.08;30.83
54948;BME280;41113;41.882;12.530;2023-06-22T10:50:11;101325.38;;;34.18;30.69
54948;BME280;41113;41.882;12.530;2023-06-22T10:52:37;101325.66;;;34.16;28.46
54948;BME280;41113;41.882;12.530;2023-06-22T10:55:02;101327.31;;;34.17;29.48
54948;BME280;41113;41.882;12.530;2023-06-22T10:57:28;101321.19;;;34.20;29.58
54948;BME280;41113;41.882;12.530;2023-06-22T10:59:53;101318.38;;;34.25;29.83
54948;BME280;41113;41.882;12.530;2023-06-22T11:02:19;101317.84;;;34.23;29.53
54948;BME280;41113;41.882;12.530;2023-06-22T11:04:44;101311.41;;;34.28;29.72
54948;BME280;41113;41.882;12.530;2023-06-22T11:07:09;101306.69;;;34.28;29.43
54948;BME280;41113;41.882;12.530;2023-06-22T11:09:35;101302.78;;;34.24;28.82
54948;BME280;41113;41.882;12.530;2023-06-22T11:12:00;101305.53;;;34.09;28.66
54948;BME280;41113;41.882;12.530;2023-06-22T11:14:25;101301.63;;;34.10;27.94
54948;BME280;41113;41.882;12.530;2023-06-22T11:16:51;101304.16;;;34.12;28.07
54948;BME280;41113;41.882;12.530;2023-06-22T11:19:17;101293.84;;;34.12;27.60
54948;BME280;41113;41.882;12.530;2023-06-22T11:21:42;101296.09;;;34.20;27.86
54948;BME280;41113;41.882;12.530;2023-06-22T11:24:08;101288.56;;;34.26;27.39
54948;BME280;41113;41.882;12.530;2023-06-22T11:26:33;101294.66;;;34.33;27.20
54948;BME280;41113;41.882;12.530;2023-06-22T11:28:59;101293.59;;;34.34;27.23
54948;BME280;41113;41.882;12.530;2023-06-22T11:31:24;101281.59;;;34.39;27.12
54948;BME280;41113;41.882;12.530;2023-06-22T11:33:50;101289.69;;;34.40;27.70
54948;BME280;41113;41.882;12.530;2023-06-22T11:36:16;101289.69;;;34.40;27.71
54948;BME280;41113;41.882;12.530;2023-06-22T11:38:42;101292.19;;;34.42;27.78
54948;BME280;41113;41.882;12.530;2023-06-22T11:41:09;101291.06;;;34.38;27.97
54948;BME280;41113;41.882;12.530;2023-06-22T11:43:34;101291.63;;;34.35;27.79
54948;BME280;41113;41.882;12.530;2023-06-22T11:46:01;101289.97;;;34.33;27.38
54948;BME280;41113;41.882;12.530;2023-06-22T11:48:27;101293.84;;;34.32;26.49
54948;BME280;41113;41.882;12.530;2023-06-22T11:50:53;101291.91;;;34.28;26.16
54948;BME280;41113;41.882;12.530;2023-06-22T11:53:20;101294.97;;;34.26;25.99
54948;BME280;41113;41.882;12.530;2023-06-22T11:55:45;101286.59;;;34.31;26.17
54948;BME280;41113;41.882;12.530;2023-06-22T11:58:10;101288.28;;;34.43;26.31
54948;BME280;41113;41.882;12.530;2023-06-22T12:00:36;101284.94;;;34.36;26.14
54948;BME280;41113;41.882;12.530;2023-06-22T12:03:02;101286.03;;;34.45;26.33
54948;BME280;41113;41.882;12.530;2023-06-22T12:05:27;101282.13;;;34.46;25.90
54948;BME280;41113;41.882;12.530;2023-06-22T12:07:53;101284.91;;;34.46;25.42
54948;BME280;41113;41.882;12.530;2023-06-22T12:10:19;101282.44;;;34.49;26.48
54948;BME280;41113;41.882;12.530;2023-06-22T12:12:44;101281.28;;;34.55;26.61
54948;BME280;41113;41.882;12.530;2023-06-22T12:15:10;101284.38;;;34.49;26.65
54948;BME280;41113;41.882;12.530;2023-06-22T12:17:35;101287.72;;;34.46;26.69
54948;BME280;41113;41.882;12.530;2023-06-22T12:20:01;101282.13;;;34.46;26.39
54948;BME280;41113;41.882;12.530;2023-06-22T12:22:29;101284.38;;;34.49;26.41
54948;BME280;41113;41.882;12.530;2023-06-22T12:24:54;101283.81;;;34.47;26.58
54948;BME280;41113;41.882;12.530;2023-06-22T12:27:20;101287.19;;;34.49;26.56
54948;BME280;41113;41.882;12.530;2023-06-22T12:29:46;101283.53;;;34.43;27.09
54948;BME280;41113;41.882;12.530;2023-06-22T12:32:11;101288.00;;;34.34;28.39
54948;BME280;41113;41.882;12.530;2023-06-22T12:34:39;101286.03;;;34.24;29.59
54948;BME280;41113;41.882;12.530;2023-06-22T12:37:04;101292.47;;;34.25;30.51
54948;BME280;41113;41.882;12.530;2023-06-22T12:39:31;101292.16;;;34.11;31.62
54948;BME280;41113;41.882;12.530;2023-06-22T12:41:57;101289.94;;;34.08;32.02
54948;BME280;41113;41.882;12.530;2023-06-22T12:44:22;101296.63;;;34.07;32.51
54948;BME280;41113;41.882;12.530;2023-06-22T12:46:47;101291.06;;;33.97;32.85